Deddington, United Kingdom
Current Conditions -  °F | °C
As of 8:20 PM on Thursday 18 Dec 2014 (Local Time) from EGTK Reporting Station
Drizzle Drizzle  
Wind Chill: 12°   Ceiling: 900
Heat Index: 12°   Visibility: 6mi
Dew Point: 12°   Wind: 22mph
Humidity: 100%   Direction: 230°SW
Pressure: 29.8"   Gusts: NA
Location:  51.98°N, 1.32°W
Report Text: EGTK 182020Z 23019KT 9000 DZ FEW007 BKN009 OVC010 12/12 Q1009
Loading
Personal Weather Stations






























Interactive Weather Map New forecast layout! Learn more

10-Day Weather Forecast

Advertisements
Track Severe Weather on mobile